Time;durP1;ratioP1;P1;durP2;ratioP2;P2;SDS_P1;SDS_P2;PMS_P1;PMS_P2;Temp;Humidity;BMP_temperature;BMP_pressure;BME280_temperature;BME280_humidity;BME280_pressure;Samples;Min_cycle;Max_cycle;Signal;HPM_P1;HPM_P2
2021/06/27 00:01:06;;;;;;;9.73;7.43;;;15.20;99.90;;;;;;5083960;28;20115;-81
2021/06/27 00:03:31;;;;;;;11.90;7.18;;;15.20;99.90;;;;;;5069246;28;20064;-81
2021/06/27 00:05:57;;;;;;;9.38;7.25;;;15.20;99.90;;;;;;5065831;28;20032;-81
2021/06/27 00:08:23;;;;;;;9.05;7.18;;;15.20;99.90;;;;;;5074035;28;20036;-81
2021/06/27 00:10:49;;;;;;;8.90;6.18;;;15.20;99.90;;;;;;5088701;28;20032;-81
2021/06/27 00:13:15;;;;;;;8.73;6.57;;;15.20;99.90;;;;;;5067053;28;20486;-81
2021/06/27 00:15:47;;;;;;;10.80;7.88;;;15.10;99.90;;;;;;5075786;28;20021;-81
2021/06/27 00:18:15;;;;;;;11.13;7.13;;;15.20;99.90;;;;;;5083203;28;20482;-80
2021/06/27 00:20:44;;;;;;;8.60;6.95;;;15.10;99.90;;;;;;5087795;28;20036;-81
2021/06/27 00:23:13;;;;;;;9.57;7.28;;;15.10;99.90;;;;;;5083177;28;20032;-81
2021/06/27 00:25:39;;;;;;;9.70;7.72;;;15.10;99.90;;;;;;5078870;28;20437;-81
2021/06/27 00:28:06;;;;;;;9.02;6.70;;;15.20;99.90;;;;;;5080639;28;20033;-80
2021/06/27 00:30:33;;;;;;;9.25;6.53;;;15.30;99.90;;;;;;5088105;28;20061;-81
2021/06/27 00:32:59;;;;;;;8.73;6.35;;;15.30;99.90;;;;;;5082210;28;20036;-81
2021/06/27 00:35:26;;;;;;;8.30;6.05;;;15.30;99.90;;;;;;5087618;28;20039;-81
2021/06/27 00:37:52;;;;;;;8.02;6.00;;;15.30;99.90;;;;;;5089877;28;20105;-81
2021/06/27 00:40:25;;;;;;;11.85;7.07;;;15.20;99.90;;;;;;5089093;28;20043;-81
2021/06/27 00:42:51;;;;;;;9.77;6.57;;;15.10;99.90;;;;;;5091592;28;20025;-81
2021/06/27 00:45:19;;;;;;;8.63;6.53;;;15.10;99.90;;;;;;5096335;28;20023;-81
2021/06/27 00:47:47;;;;;;;11.27;7.35;;;15.00;99.90;;;;;;5092293;28;20631;-81
2021/06/27 00:50:14;;;;;;;8.88;6.93;;;15.00;99.90;;;;;;5093711;28;20131;-81
2021/06/27 00:52:40;;;;;;;9.77;6.68;;;15.10;99.90;;;;;;5085968;28;20071;-81
2021/06/27 00:55:07;;;;;;;8.68;6.65;;;15.10;99.90;;;;;;5064474;28;20032;-81
2021/06/27 00:57:33;;;;;;;8.90;6.95;;;15.20;99.90;;;;;;5090043;28;20068;-81
2021/06/27 01:00:02;;;;;;;8.38;6.78;;;15.30;99.90;;;;;;5086901;28;20103;-81
2021/06/27 01:02:29;;;;;;;9.38;7.28;;;15.30;99.90;;;;;;5052058;28;20494;-81
2021/06/27 01:04:54;;;;;;;9.10;6.97;;;15.20;99.90;;;;;;5068984;28;20029;-81
2021/06/27 01:07:20;;;;;;;8.90;6.70;;;15.20;99.90;;;;;;5062916;28;20394;-81
2021/06/27 01:09:46;;;;;;;7.57;6.38;;;15.20;99.90;;;;;;5085739;28;20029;-81
2021/06/27 01:12:11;;;;;;;9.82;6.95;;;15.20;99.90;;;;;;5078830;28;20043;-81
2021/06/27 01:14:37;;;;;;;8.75;6.80;;;15.20;99.90;;;;;;5070990;28;20241;-81
2021/06/27 01:17:03;;;;;;;8.23;6.38;;;15.10;99.90;;;;;;5088514;28;20615;-81
2021/06/27 01:19:33;;;;;;;8.65;6.28;;;15.10;99.90;;;;;;5062994;28;20510;-81
2021/06/27 01:22:00;;;;;;;8.52;6.55;;;15.00;99.90;;;;;;5088451;28;20021;-81
2021/06/27 01:24:26;;;;;;;9.63;7.15;;;14.90;99.90;;;;;;5085490;28;20506;-81
2021/06/27 01:26:52;;;;;;;8.40;7.15;;;14.80;99.90;;;;;;5080592;28;20217;-81
2021/06/27 01:29:18;;;;;;;8.73;7.05;;;14.80;99.90;;;;;;5077965;28;20039;-81
2021/06/27 01:31:45;;;;;;;11.02;7.25;;;14.70;99.90;;;;;;5074301;28;20542;-81
2021/06/27 01:34:13;;;;;;;8.88;6.78;;;14.60;99.90;;;;;;5075935;28;20049;-81
2021/06/27 01:36:39;;;;;;;10.63;7.35;;;14.60;99.90;;;;;;5080204;28;20501;-81
2021/06/27 01:39:04;;;;;;;9.25;6.85;;;14.50;99.90;;;;;;5072796;28;20032;-81
2021/06/27 01:41:30;;;;;;;9.98;7.15;;;14.50;99.90;;;;;;5084140;28;20027;-81
2021/06/27 01:43:56;;;;;;;10.15;7.45;;;14.50;99.90;;;;;;5076651;28;20040;-81
2021/06/27 01:46:22;;;;;;;11.35;7.00;;;14.40;99.90;;;;;;5089103;28;20115;-81
2021/06/27 01:48:48;;;;;;;10.70;7.28;;;14.40;99.90;;;;;;5094189;28;20081;-81
2021/06/27 01:51:14;;;;;;;10.02;7.18;;;14.40;99.90;;;;;;5057846;28;20399;-81
2021/06/27 01:53:40;;;;;;;8.98;6.68;;;14.40;99.90;;;;;;5070818;28;20115;-81
2021/06/27 01:56:07;;;;;;;10.07;7.63;;;14.40;99.90;;;;;;5088692;28;20042;-81
2021/06/27 01:58:52;;;;;;;11.45;8.02;;;14.30;99.90;;;;;;5093719;28;20059;-81
2021/06/27 02:01:22;;;;;;;10.55;7.78;;;14.20;99.90;;;;;;5058868;28;20475;-81
2021/06/27 02:03:49;;;;;;;11.98;7.65;;;14.20;99.90;;;;;;5072255;28;20040;-81
2021/06/27 02:06:18;;;;;;;10.68;7.72;;;14.20;99.90;;;;;;5063504;28;20578;-81
2021/06/27 02:08:43;;;;;;;11.93;7.85;;;14.20;99.90;;;;;;5078871;28;20105;-81
2021/06/27 02:11:12;;;;;;;10.05;7.75;;;14.10;99.90;;;;;;5077727;28;20028;-81
2021/06/27 02:13:38;;;;;;;10.30;7.57;;;14.10;99.90;;;;;;5059856;28;20070;-81
2021/06/27 02:16:06;;;;;;;11.32;7.00;;;14.10;99.90;;;;;;5060967;28;20060;-81
2021/06/27 02:18:41;;;;;;;12.40;7.15;;;14.10;99.90;;;;;;5083528;28;20027;-81
2021/06/27 02:21:28;;;;;;;10.32;7.50;;;14.10;99.90;;;;;;5067067;28;20108;-81
2021/06/27 02:23:55;;;;;;;16.17;8.13;;;14.20;99.90;;;;;;5080736;28;20514;-81
2021/06/27 02:26:21;;;;;;;10.75;7.82;;;14.10;99.90;;;;;;5074902;28;20040;-81
2021/06/27 02:28:47;;;;;;;9.73;7.07;;;14.20;99.90;;;;;;5064035;28;20032;-81
2021/06/27 02:31:14;;;;;;;15.43;8.07;;;14.20;99.90;;;;;;5084666;28;20032;-81
2021/06/27 02:33:40;;;;;;;10.95;8.23;;;14.20;99.90;;;;;;5075224;28;20039;-80
2021/06/27 02:36:06;;;;;;;10.30;8.15;;;14.20;99.90;;;;;;5062016;28;20062;-81
2021/06/27 02:38:33;;;;;;;11.35;8.07;;;14.20;99.90;;;;;;5057727;28;20090;-81
2021/06/27 02:40:59;;;;;;;12.15;8.52;;;14.10;99.90;;;;;;5067952;28;20027;-81
2021/06/27 06:52:09;;;;;;;;;;;26.10;99.40;;;;;;5087164;28;20503;-82
2021/06/27 06:54:35;;;;;;;6.50;5.18;;;26.60;99.60;;;;;;5067744;28;19967;-80
2021/06/27 06:57:00;;;;;;;8.75;5.65;;;27.00;97.30;;;;;;5078262;28;20029;-81
2021/06/27 06:59:26;;;;;;;5.55;5.03;;;27.40;95.50;;;;;;5065094;28;20625;-82
2021/06/27 07:01:52;;;;;;;5.40;4.88;;;27.60;93.40;;;;;;5034768;28;20033;-82
2021/06/27 07:04:18;;;;;;;6.13;5.47;;;27.60;93.60;;;;;;5052237;28;20041;-82
2021/06/27 07:06:44;;;;;;;7.35;5.03;;;27.40;92.40;;;;;;5035347;28;20399;-81
2021/06/27 07:09:10;;;;;;;6.40;5.47;;;27.20;92.80;;;;;;5055925;28;20044;-79
2021/06/27 07:11:36;;;;;;;6.18;5.30;;;27.30;91.80;;;;;;5075320;28;20084;-84
2021/06/27 07:14:01;;;;;;;5.63;5.13;;;27.40;92.90;;;;;;5075755;28;20070;-84
2021/06/27 07:16:28;;;;;;;7.00;5.20;;;27.40;93.40;;;;;;5037084;28;20032;-81
2021/06/27 07:18:54;;;;;;;5.15;4.43;;;27.50;91.40;;;;;;5070831;28;20029;-82
2021/06/27 07:21:19;;;;;;;5.68;5.00;;;27.50;91.70;;;;;;5021835;28;20457;-82
2021/06/27 07:23:45;;;;;;;6.65;5.68;;;27.20;91.70;;;;;;5068963;28;20146;-83
2021/06/27 07:26:11;;;;;;;5.40;4.90;;;27.00;90.90;;;;;;5055192;28;20037;-83
2021/06/27 07:28:37;;;;;;;7.70;5.55;;;26.70;92.40;;;;;;5038335;28;20041;-82
2021/06/27 07:31:03;;;;;;;8.50;5.95;;;26.30;91.00;;;;;;5069343;28;20040;-82
2021/06/27 07:33:29;;;;;;;6.13;5.50;;;25.90;90.80;;;;;;5042691;28;20029;-82
2021/06/27 07:35:55;;;;;;;6.13;5.53;;;25.50;92.50;;;;;;5076807;28;20134;-84
2021/06/27 07:38:21;;;;;;;8.07;6.40;;;25.20;93.40;;;;;;5051929;28;20052;-82
2021/06/27 07:40:47;;;;;;;6.40;5.80;;;25.00;93.90;;;;;;5064933;28;20024;-82
2021/06/27 07:43:13;;;;;;;7.38;6.18;;;25.10;94.60;;;;;;5052329;28;20044;-82
2021/06/27 07:45:40;;;;;;;6.50;5.82;;;25.50;94.50;;;;;;5068385;28;20036;-84
2021/06/27 07:48:07;;;;;;;7.30;5.90;;;25.90;94.20;;;;;;5051789;28;20079;-83
2021/06/27 07:50:32;;;;;;;6.10;5.55;;;26.40;93.00;;;;;;5041452;28;20461;-83
2021/06/27 07:52:58;;;;;;;7.25;6.20;;;26.70;92.20;;;;;;5031782;28;20095;-83
2021/06/27 07:55:24;;;;;;;6.40;5.72;;;26.90;89.60;;;;;;5031704;28;20064;-83
2021/06/27 07:57:50;;;;;;;6.97;5.97;;;26.60;88.70;;;;;;5031538;28;20040;-83
2021/06/27 08:00:16;;;;;;;5.68;5.07;;;26.20;91.00;;;;;;5047395;28;20029;-83
2021/06/27 08:02:42;;;;;;;5.80;5.20;;;26.00;92.00;;;;;;5035221;28;20042;-85
2021/06/27 08:05:09;;;;;;;5.78;5.00;;;26.00;92.50;;;;;;4998765;28;20080;-82
2021/06/27 08:07:35;;;;;;;6.93;5.30;;;25.90;92.30;;;;;;5047834;28;20037;-82
2021/06/27 08:10:00;;;;;;;7.50;6.65;;;25.90;92.90;;;;;;5029139;28;20246;-82
2021/06/27 08:12:26;;;;;;;6.57;5.97;;;25.80;92.50;;;;;;5039740;28;20029;-84
2021/06/27 08:14:52;;;;;;;8.18;7.32;;;25.60;93.40;;;;;;5035914;28;20472;-83
2021/06/27 08:17:18;;;;;;;7.80;6.60;;;25.30;91.40;;;;;;5021220;28;20029;-82
2021/06/27 08:19:46;;;;;;;6.03;5.40;;;25.00;93.20;;;;;;5041865;28;20112;-82
2021/06/27 08:22:12;;;;;;;7.85;5.68;;;24.90;94.50;;;;;;5024040;28;20041;-82
2021/06/27 08:24:39;;;;;;;6.18;5.57;;;25.00;95.50;;;;;;5019552;28;20026;-82
2021/06/27 08:27:07;;;;;;;6.95;6.25;;;25.10;93.70;;;;;;5037984;28;20029;-84
2021/06/27 08:29:32;;;;;;;7.65;5.50;;;25.20;93.80;;;;;;5023874;28;20104;-84
2021/06/27 08:31:58;;;;;;;7.93;6.82;;;25.10;93.40;;;;;;5024159;28;20131;-83
2021/06/27 08:34:24;;;;;;;6.00;5.40;;;25.00;93.40;;;;;;5039981;28;20442;-83
2021/06/27 08:36:50;;;;;;;8.45;5.95;;;24.80;95.20;;;;;;5009456;28;20049;-84
2021/06/27 08:39:15;;;;;;;7.45;6.38;;;24.60;95.20;;;;;;5030610;28;20411;-84
2021/06/27 08:41:42;;;;;;;6.18;5.57;;;24.50;95.90;;;;;;5026407;28;20507;-83
2021/06/27 08:44:11;;;;;;;7.15;5.88;;;24.50;96.50;;;;;;5024533;28;20102;-84
2021/06/27 08:46:41;;;;;;;7.00;6.38;;;24.40;94.90;;;;;;5009482;28;20484;-83
2021/06/27 08:49:07;;;;;;;6.43;5.32;;;24.30;96.50;;;;;;5028126;28;20041;-80
2021/06/27 08:51:39;;;;;;;7.35;6.60;;;24.20;97.00;;;;;;5024534;28;20099;-81
2021/06/27 08:54:10;;;;;;;6.95;6.25;;;24.20;97.10;;;;;;5029893;28;20033;-82
2021/06/27 08:56:37;;;;;;;6.35;5.75;;;24.20;97.00;;;;;;5047776;28;20038;-81
2021/06/27 08:59:03;;;;;;;7.28;6.22;;;24.20;97.40;;;;;;5013358;28;20499;-79
2021/06/27 09:01:29;;;;;;;7.63;6.47;;;24.20;96.70;;;;;;5046782;28;20037;-81
2021/06/27 09:03:55;;;;;;;6.97;6.28;;;24.50;96.60;;;;;;5048503;28;20074;-82
2021/06/27 09:06:29;;;;;;;7.70;6.45;;;24.90;97.30;;;;;;5030786;28;20506;-81
2021/06/27 09:09:17;;;;;;;6.18;5.57;;;25.30;97.00;;;;;;5047476;28;20021;-81
2021/06/27 09:12:00;;;;;;;7.20;5.72;;;25.70;96.10;;;;;;5048284;28;20507;-83
2021/06/27 09:14:39;;;;;;;6.40;5.80;;;25.90;93.70;;;;;;5047800;28;20029;-82
2021/06/27 09:17:17;;;;;;;7.75;5.72;;;26.10;92.50;;;;;;5061928;28;20043;-82
2021/06/27 09:19:52;;;;;;;7.10;6.18;;;26.00;92.30;;;;;;5024889;28;20387;-82
2021/06/27 09:22:22;;;;;;;6.80;6.13;;;25.90;94.20;;;;;;5046821;28;20027;-82
2021/06/27 09:24:48;;;;;;;5.88;5.28;;;26.00;95.20;;;;;;5014222;28;20046;-83
2021/06/27 09:27:19;;;;;;;6.07;5.10;;;26.10;93.60;;;;;;5047910;28;20367;-82
2021/06/27 09:29:45;;;;;;;5.78;5.22;;;26.10;91.40;;;;;;5047120;28;20428;-82
2021/06/27 09:32:29;;;;;;;5.38;4.60;;;25.90;90.90;;;;;;5047462;28;20037;-83
2021/06/27 09:34:55;;;;;;;8.07;4.70;;;25.70;92.60;;;;;;5047449;28;20032;-81
2021/06/27 09:37:29;;;;;;;5.10;4.60;;;25.60;93.50;;;;;;5047729;28;20025;-82
2021/06/27 09:39:58;;;;;;;5.78;5.28;;;25.40;93.50;;;;;;5028811;28;20112;-82
2021/06/27 09:42:25;;;;;;;7.43;5.15;;;25.30;92.70;;;;;;5030296;28;20510;-82
2021/06/27 09:45:06;;;;;;;6.10;5.50;;;25.10;94.90;;;;;;5046901;28;20441;-82
2021/06/27 09:47:33;;;;;;;6.35;5.75;;;25.20;96.60;;;;;;5014599;28;20086;-82
2021/06/27 09:50:00;;;;;;;5.80;4.85;;;25.20;95.00;;;;;;5050599;28;20096;-82
2021/06/27 09:52:39;;;;;;;4.75;4.13;;;25.20;96.10;;;;;;5033580;28;20059;-80
2021/06/27 09:55:10;;;;;;;5.70;4.80;;;25.00;90.70;;;;;;5068640;28;20028;-78
2021/06/27 09:57:37;;;;;;;4.65;4.25;;;24.60;92.40;;;;;;5084154;28;20036;-80
2021/06/27 10:00:23;;;;;;;4.95;4.55;;;24.50;92.80;;;;;;5049460;28;20036;-80
2021/06/27 10:03:02;;;;;;;7.32;4.65;;;24.40;95.30;;;;;;5059583;28;20036;-82
2021/06/27 10:05:28;;;;;;;6.50;4.72;;;24.30;91.60;;;;;;5065124;28;20100;-80
2021/06/27 10:07:55;;;;;;;5.07;4.55;;;24.20;91.70;;;;;;5068663;28;20096;-80
2021/06/27 10:10:21;;;;;;;5.13;3.72;;;24.10;92.60;;;;;;5066892;28;20042;-80
2021/06/27 10:12:48;;;;;;;4.80;4.30;;;24.00;92.80;;;;;;5033925;28;20028;-80
2021/06/27 10:15:15;;;;;;;3.90;3.50;;;24.20;92.60;;;;;;5069864;28;20024;-80
2021/06/27 10:17:42;;;;;;;3.58;3.28;;;24.20;89.30;;;;;;5049148;28;20070;-80
2021/06/27 10:20:10;;;;;;;3.35;3.05;;;24.20;90.50;;;;;;5082169;28;20025;-80
2021/06/27 10:22:36;;;;;;;3.78;2.88;;;24.20;85.60;;;;;;5066759;28;20036;-80
2021/06/27 10:25:05;;;;;;;4.53;3.15;;;24.20;83.00;;;;;;5051172;28;20043;-81
2021/06/27 10:27:33;;;;;;;2.70;2.50;;;24.20;86.90;;;;;;5058809;28;20071;-81
2021/06/27 10:30:01;;;;;;;4.40;3.00;;;24.30;81.30;;;;;;5037204;28;20040;-82
2021/06/27 10:32:27;;;;;;;4.18;2.70;;;24.40;89.40;;;;;;5031132;28;20032;-81
2021/06/27 10:34:54;;;;;;;3.47;2.67;;;24.60;82.20;;;;;;5041094;28;20509;-80
2021/06/27 10:37:39;;;;;;;2.63;2.42;;;24.60;80.00;;;;;;5063717;28;20020;-80
2021/06/27 10:40:14;;;;;;;3.22;2.92;;;24.60;79.80;;;;;;5091370;28;20027;-80
2021/06/27 10:42:49;;;;;;;3.53;3.22;;;24.70;79.00;;;;;;5036086;28;20030;-80
2021/06/27 10:45:17;;;;;;;3.33;3.03;;;24.70;83.80;;;;;;5052254;28;20032;-81
2021/06/27 10:47:43;;;;;;;3.30;3.00;;;24.70;81.80;;;;;;5033564;28;20032;-80
2021/06/27 10:50:11;;;;;;;3.72;3.38;;;24.70;83.00;;;;;;5040160;28;20071;-80
2021/06/27 10:52:55;;;;;;;3.70;3.40;;;24.70;83.00;;;;;;5053747;28;20036;-80
2021/06/27 10:55:38;;;;;;;3.40;3.10;;;24.80;84.40;;;;;;5065379;28;20040;-79
2021/06/27 10:58:31;;;;;;;2.75;2.55;;;25.00;85.50;;;;;;5082085;28;20035;-79
2021/06/27 11:00:57;;;;;;;2.95;2.75;;;25.00;78.40;;;;;;5050806;28;20167;-79
2021/06/27 11:03:26;;;;;;;3.25;2.95;;;25.00;81.00;;;;;;5052489;28;20024;-80
2021/06/27 11:05:57;;;;;;;3.70;3.40;;;25.00;80.60;;;;;;5070434;28;20082;-80
2021/06/27 11:08:40;;;;;;;3.88;3.30;;;25.00;76.10;;;;;;5066569;28;20123;-80
2021/06/27 11:11:07;;;;;;;3.15;2.80;;;24.80;77.80;;;;;;5069476;28;20123;-81
2021/06/27 11:13:34;;;;;;;3.10;2.80;;;24.80;79.40;;;;;;5049000;28;20023;-80
2021/06/27 11:16:03;;;;;;;2.25;2.05;;;24.80;77.00;;;;;;5073093;28;20031;-79
2021/06/27 11:18:30;;;;;;;2.83;2.63;;;24.70;74.80;;;;;;5046606;28;20063;-79
2021/06/27 11:20:56;;;;;;;2.95;2.72;;;24.80;77.70;;;;;;5067358;28;20036;-79
2021/06/27 11:23:52;;;;;;;5.65;3.50;;;24.90;80.10;;;;;;5068121;28;20428;-79
2021/06/27 11:26:37;;;;;;;;;;;25.10;80.60;;;;;;5049780;28;20527;-80
2021/06/27 11:29:22;;;;;;;3.70;3.40;;;25.20;81.10;;;;;;5066214;28;19919;-79
2021/06/27 11:31:52;;;;;;;;;;;25.30;77.40;;;;;;5069247;28;20037;-79
2021/06/27 11:34:28;;;;;;;3.15;2.90;;;25.30;80.50;;;;;;5053652;28;19908;-80
2021/06/27 11:36:56;;;;;;;3.42;3.05;;;25.30;80.80;;;;;;5068251;28;20024;-79
2021/06/27 11:39:48;;;;;;;2.90;2.70;;;25.30;76.30;;;;;;5072242;28;20051;-81
2021/06/27 11:42:29;;;;;;;3.63;3.33;;;25.40;76.20;;;;;;5044953;28;20043;-80
2021/06/27 11:45:07;;;;;;;3.40;3.10;;;25.40;73.90;;;;;;5054336;28;20021;-78
2021/06/27 11:47:37;;;;;;;3.40;3.10;;;25.30;73.70;;;;;;5073344;28;20054;-80
2021/06/27 11:50:36;;;;;;;3.78;3.47;;;25.40;78.70;;;;;;5053165;28;20079;-80
2021/06/27 11:53:08;;;;;;;3.15;2.95;;;25.70;80.30;;;;;;5007855;28;20528;-82
2021/06/27 11:55:35;;;;;;;3.20;3.00;;;25.90;74.90;;;;;;5053493;28;20025;-80
2021/06/27 11:58:02;;;;;;;2.90;2.70;;;26.00;74.60;;;;;;5036932;28;20033;-80
2021/06/27 12:00:49;;;;;;;2.88;2.67;;;26.10;69.00;;;;;;5039058;28;20714;-81
2021/06/27 12:03:21;;;;;;;3.10;2.90;;;26.20;74.60;;;;;;5046124;28;20582;-82
2021/06/27 12:06:00;;;;;;;3.17;2.80;;;26.10;73.90;;;;;;5050671;28;20415;-83
2021/06/27 12:08:27;;;;;;;3.05;2.75;;;26.30;68.30;;;;;;5055691;28;20048;-81
2021/06/27 12:10:56;;;;;;;3.25;2.95;;;26.50;67.50;;;;;;5020033;28;20114;-81
2021/06/27 12:13:23;;;;;;;2.92;2.63;;;26.30;66.50;;;;;;5001687;28;20036;-81
2021/06/27 12:15:50;;;;;;;2.65;2.45;;;26.50;69.40;;;;;;5038424;28;20032;-83
2021/06/27 12:18:22;;;;;;;2.80;2.50;;;26.80;63.40;;;;;;5045853;28;20035;-82
2021/06/27 12:20:50;;;;;;;2.88;2.67;;;26.80;65.90;;;;;;5052448;28;20032;-81
2021/06/27 12:23:31;;;;;;;2.72;2.53;;;26.90;69.10;;;;;;5033439;28;20032;-81
2021/06/27 12:26:01;;;;;;;2.50;2.30;;;27.20;68.00;;;;;;5050018;28;20036;-81
2021/06/27 12:29:07;;;;;;;3.53;3.22;;;27.60;65.60;;;;;;5033356;28;20029;-81
2021/06/27 12:31:33;;;;;;;;;;;28.20;67.00;;;;;;4991835;28;20048;-81
2021/06/27 12:34:06;;;;;;;3.03;2.72;;;28.80;67.20;;;;;;5008946;28;20443;-82
2021/06/27 12:36:39;;;;;;;2.95;2.75;;;29.10;58.70;;;;;;5016986;28;20044;-82
2021/06/27 12:39:12;;;;;;;2.40;2.20;;;29.00;60.40;;;;;;5051752;28;20033;-82
2021/06/27 12:41:38;;;;;;;2.60;2.25;;;28.80;66.60;;;;;;5060740;28;20033;-79
2021/06/27 12:44:10;;;;;;;2.05;1.95;;;28.50;60.50;;;;;;5070905;28;20540;-82
2021/06/27 12:46:41;;;;;;;2.33;2.13;;;28.40;65.00;;;;;;5052615;28;20032;-80
2021/06/27 12:49:18;;;;;;;2.35;2.20;;;28.40;64.10;;;;;;5069974;28;20042;-83
2021/06/27 12:52:05;;;;;;;2.80;2.60;;;28.60;60.60;;;;;;5052466;28;20028;-81
2021/06/27 12:54:51;;;;;;;2.70;2.50;;;28.90;59.30;;;;;;5055843;28;20020;-81
2021/06/27 12:57:21;;;;;;;2.60;2.40;;;29.20;60.60;;;;;;5032409;28;20128;-83
2021/06/27 12:59:50;;;;;;;3.65;2.63;;;29.70;60.90;;;;;;5051086;28;20042;-81
2021/06/27 13:02:26;;;;;;;2.88;2.20;;;30.20;60.50;;;;;;5052102;28;20040;-82
2021/06/27 13:05:06;;;;;;;2.80;2.40;;;30.50;55.20;;;;;;5063504;28;20033;-82
2021/06/27 13:07:34;;;;;;;2.58;2.25;;;30.30;55.70;;;;;;5043318;28;20477;-83
2021/06/27 13:10:17;;;;;;;2.30;2.20;;;30.10;56.20;;;;;;5049427;28;20058;-82
2021/06/27 13:13:08;;;;;;;2.38;2.20;;;30.30;53.20;;;;;;5047642;28;20361;-82
2021/06/27 13:15:45;;;;;;;1.83;1.73;;;30.50;50.80;;;;;;5034042;28;20028;-82
2021/06/27 13:18:12;;;;;;;2.20;2.05;;;30.30;54.60;;;;;;5064569;28;20029;-82
2021/06/27 13:20:40;;;;;;;2.00;1.90;;;30.30;54.40;;;;;;5035021;28;20028;-82
2021/06/27 13:23:12;;;;;;;2.30;2.08;;;30.00;50.20;;;;;;5051566;28;20550;-81
2021/06/27 13:25:50;;;;;;;2.85;2.65;;;30.00;52.00;;;;;;5084861;28;20487;-82
2021/06/27 13:28:25;;;;;;;2.22;2.10;;;30.00;52.10;;;;;;5064570;28;20418;-82
2021/06/27 13:30:55;;;;;;;1.95;1.70;;;29.90;51.00;;;;;;5067469;28;20028;-82
2021/06/27 13:33:23;;;;;;;2.10;2.00;;;29.90;51.00;;;;;;5031489;28;20037;-83
2021/06/27 13:36:02;;;;;;;2.08;1.98;;;30.00;49.40;;;;;;5050843;28;20031;-82
2021/06/27 13:38:28;;;;;;;1.65;1.55;;;30.00;54.00;;;;;;5065804;28;20031;-84
2021/06/27 13:40:58;;;;;;;2.05;1.95;;;30.00;51.00;;;;;;5034283;28;20037;-84
2021/06/27 13:43:23;;;;;;;2.00;1.90;;;30.00;49.50;;;;;;5051341;28;20040;-82
2021/06/27 13:45:51;;;;;;;2.60;2.40;;;30.20;51.70;;;;;;5067548;28;20024;-83
2021/06/27 13:48:17;;;;;;;2.10;1.95;;;30.20;51.30;;;;;;5034945;28;20028;-83
2021/06/27 13:50:43;;;;;;;2.13;1.92;;;30.00;52.90;;;;;;5066718;28;20085;-83
2021/06/27 13:53:09;;;;;;;2.35;2.15;;;30.00;53.60;;;;;;5069695;28;20033;-82
2021/06/27 13:55:35;;;;;;;3.53;2.38;;;30.10;50.60;;;;;;5094507;28;20021;-83
2021/06/27 13:58:01;;;;;;;2.20;2.00;;;30.20;50.70;;;;;;5055837;28;20031;-83
2021/06/27 14:00:27;;;;;;;2.30;2.10;;;30.00;51.50;;;;;;5060682;28;20120;-83
2021/06/27 14:02:54;;;;;;;2.13;2.03;;;29.90;54.70;;;;;;5050366;28;20037;-83
2021/06/27 14:05:21;;;;;;;2.22;1.95;;;29.70;55.50;;;;;;5053057;28;20427;-83
2021/06/27 14:07:48;;;;;;;3.17;2.40;;;29.60;56.20;;;;;;5024056;28;20582;-83
2021/06/27 14:10:25;;;;;;;2.63;2.25;;;29.50;53.30;;;;;;5017231;28;20048;-83
2021/06/27 14:12:52;;;;;;;2.25;2.05;;;29.10;55.50;;;;;;5059655;28;20032;-83
2021/06/27 14:15:20;;;;;;;2.33;2.20;;;28.90;54.00;;;;;;5048624;28;20029;-83
2021/06/27 14:17:50;;;;;;;1.90;1.67;;;28.40;52.60;;;;;;5062371;28;20029;-83
2021/06/27 14:20:16;;;;;;;2.53;2.33;;;28.20;56.00;;;;;;5068011;28;20147;-83
2021/06/27 14:22:42;;;;;;;2.40;2.20;;;28.10;55.30;;;;;;5068113;28;20056;-84
2021/06/27 14:25:09;;;;;;;2.55;2.35;;;27.90;54.90;;;;;;5021485;28;20070;-83
2021/06/27 14:27:36;;;;;;;2.40;2.20;;;27.70;57.20;;;;;;5033973;28;20048;-83
2021/06/27 14:30:04;;;;;;;2.38;2.17;;;27.70;56.00;;;;;;5042481;28;20040;-81
2021/06/27 14:32:30;;;;;;;2.42;2.15;;;27.70;56.40;;;;;;5065185;28;20029;-83
2021/06/27 14:34:56;;;;;;;2.85;2.65;;;27.60;58.50;;;;;;5050398;28;20037;-83
2021/06/27 14:37:22;;;;;;;2.28;2.10;;;27.60;57.50;;;;;;5034190;28;20032;-83
2021/06/27 14:39:47;;;;;;;3.53;2.40;;;27.30;57.60;;;;;;5046697;28;20853;-83
2021/06/27 14:42:13;;;;;;;3.00;2.80;;;27.20;57.10;;;;;;5058525;28;20039;-83
2021/06/27 14:44:49;;;;;;;2.80;2.60;;;27.10;59.20;;;;;;5036266;28;20036;-81
2021/06/27 14:47:15;;;;;;;2.55;2.35;;;27.00;59.70;;;;;;5036390;28;20023;-79
2021/06/27 14:49:40;;;;;;;2.85;2.65;;;26.80;60.10;;;;;;5069239;28;20133;-79
2021/06/27 14:52:06;;;;;;;2.63;2.42;;;26.70;60.80;;;;;;5073597;28;20048;-79
2021/06/27 14:54:32;;;;;;;2.50;2.30;;;26.60;62.40;;;;;;5075851;28;20034;-80
2021/06/27 14:56:58;;;;;;;2.85;2.33;;;26.60;59.10;;;;;;5038077;28;20119;-79
2021/06/27 14:59:23;;;;;;;2.72;2.53;;;26.50;62.30;;;;;;5058854;28;20431;-79
2021/06/27 15:01:57;;;;;;;2.70;2.50;;;26.50;62.50;;;;;;5081469;28;20482;-79
2021/06/27 15:04:23;;;;;;;2.00;1.90;;;26.60;64.20;;;;;;5055517;28;20075;-79
2021/06/27 15:06:49;;;;;;;2.20;2.10;;;26.70;61.40;;;;;;5056592;28;20062;-79
2021/06/27 15:09:14;;;;;;;2.20;2.10;;;26.60;58.90;;;;;;5061507;28;20033;-79
2021/06/27 15:11:40;;;;;;;2.35;2.15;;;26.60;56.20;;;;;;5051585;28;20079;-79
2021/06/27 15:14:06;;;;;;;2.67;2.42;;;26.70;57.90;;;;;;5078811;28;20059;-79
2021/06/27 15:16:31;;;;;;;2.40;2.22;;;26.60;60.80;;;;;;5060392;28;20036;-78
2021/06/27 15:18:57;;;;;;;2.50;2.30;;;26.60;60.10;;;;;;5067577;28;20480;-78
2021/06/27 15:21:23;;;;;;;2.50;2.20;;;26.60;59.40;;;;;;5084678;28;20036;-79
2021/06/27 15:23:49;;;;;;;3.90;2.42;;;26.60;58.60;;;;;;5082342;28;20020;-79
2021/06/27 15:26:16;;;;;;;2.60;2.40;;;26.60;58.50;;;;;;5072090;28;20032;-79
2021/06/27 15:28:41;;;;;;;2.70;2.50;;;26.30;56.30;;;;;;5065725;28;20048;-79
2021/06/27 15:31:07;;;;;;;2.70;2.50;;;26.10;56.30;;;;;;5067294;28;20032;-79
2021/06/27 15:33:33;;;;;;;2.47;2.28;;;26.00;57.70;;;;;;5072802;28;20020;-79
2021/06/27 15:36:02;;;;;;;2.50;2.30;;;25.90;59.10;;;;;;5071201;28;20033;-79
2021/06/27 15:38:28;;;;;;;2.28;2.08;;;25.80;61.70;;;;;;5053559;28;20074;-79
2021/06/27 15:40:54;;;;;;;2.03;1.92;;;25.80;63.00;;;;;;5082307;28;20024;-79
2021/06/27 15:43:19;;;;;;;2.53;2.33;;;25.70;64.50;;;;;;5035869;28;20028;-79
2021/06/27 15:45:46;;;;;;;2.58;2.30;;;25.70;59.10;;;;;;5060726;28;20501;-79
2021/06/27 15:48:13;;;;;;;2.47;2.28;;;25.70;60.90;;;;;;5060352;28;20031;-78
2021/06/27 15:50:38;;;;;;;2.30;2.10;;;25.90;61.50;;;;;;5069528;28;20028;-79
2021/06/27 15:53:04;;;;;;;2.47;2.28;;;25.90;60.00;;;;;;5082414;28;20097;-79
2021/06/27 15:55:30;;;;;;;2.50;2.30;;;25.90;58.00;;;;;;5078431;28;20654;-78
2021/06/27 15:57:55;;;;;;;2.70;2.50;;;25.90;60.70;;;;;;5065084;28;20033;-78
2021/06/27 16:00:22;;;;;;;3.40;3.05;;;26.00;63.30;;;;;;5054349;28;20446;-78
2021/06/27 16:02:49;;;;;;;3.25;2.58;;;25.90;63.80;;;;;;5058946;28;20104;-79
2021/06/27 16:05:16;;;;;;;2.38;2.17;;;25.90;61.50;;;;;;5051853;28;20056;-79
2021/06/27 16:07:42;;;;;;;2.67;2.47;;;25.70;60.90;;;;;;5052908;28;20079;-78
2021/06/27 16:10:08;;;;;;;2.97;2.72;;;25.80;62.20;;;;;;5078553;28;20044;-78
2021/06/27 16:12:34;;;;;;;3.00;2.80;;;25.90;65.30;;;;;;5074441;28;20048;-79
2021/06/27 16:14:59;;;;;;;2.60;2.40;;;25.90;64.80;;;;;;5040028;28;20021;-79
2021/06/27 16:17:25;;;;;;;3.10;2.50;;;25.90;63.80;;;;;;5052516;28;20040;-78
2021/06/27 16:19:51;;;;;;;2.65;2.45;;;26.00;63.70;;;;;;5075103;28;20020;-79
2021/06/27 16:22:17;;;;;;;2.70;2.50;;;26.00;63.60;;;;;;5058624;28;20671;-79
2021/06/27 16:24:43;;;;;;;2.70;2.50;;;26.10;62.50;;;;;;5065744;28;20067;-78
2021/06/27 16:27:09;;;;;;;2.95;2.75;;;26.10;62.80;;;;;;5066198;28;20032;-78
2021/06/27 16:29:35;;;;;;;2.83;2.63;;;26.10;64.70;;;;;;5052058;28;20433;-79
2021/06/27 16:32:01;;;;;;;2.55;2.35;;;26.10;63.60;;;;;;5064693;28;20444;-78
2021/06/27 16:34:28;;;;;;;2.65;2.45;;;25.90;64.30;;;;;;5054831;28;20112;-79
2021/06/27 16:36:56;;;;;;;5.25;2.80;;;25.90;65.80;;;;;;5063124;28;20041;-78
2021/06/27 16:39:22;;;;;;;2.78;2.58;;;25.90;64.60;;;;;;5062074;28;20088;-78
2021/06/27 16:41:48;;;;;;;2.75;2.55;;;25.90;63.80;;;;;;5066597;28;20032;-78
2021/06/27 16:44:14;;;;;;;2.42;2.22;;;25.90;63.40;;;;;;5053871;28;20387;-78
2021/06/27 16:46:39;;;;;;;2.97;2.78;;;25.90;65.60;;;;;;5064974;28;20724;-79
2021/06/27 16:49:05;;;;;;;4.18;2.70;;;25.80;64.40;;;;;;5060048;28;20060;-79
2021/06/27 16:51:31;;;;;;;3.83;2.70;;;25.70;64.90;;;;;;5038465;28;20369;-78
2021/06/27 16:53:57;;;;;;;2.60;2.40;;;25.70;65.00;;;;;;5074522;28;20107;-77
2021/06/27 16:56:23;;;;;;;2.60;2.40;;;25.60;64.50;;;;;;5073120;28;20042;-78
2021/06/27 16:58:48;;;;;;;2.83;2.53;;;25.60;66.20;;;;;;5054666;28;20033;-78
2021/06/27 17:01:14;;;;;;;3.05;2.80;;;25.50;66.30;;;;;;5054648;28;20036;-78
2021/06/27 17:03:40;;;;;;;3.65;2.40;;;25.40;66.90;;;;;;5070539;28;20029;-78
2021/06/27 17:06:10;;;;;;;3.08;2.58;;;25.30;67.70;;;;;;5051628;28;20039;-79